Tiempo atmosférico en la estación meteorológica de Fisterra, A Coruña (230 m.)



Fecha
DESCASC
Temp. máxima en grados centígrados (hora)
DESCASC
Temp. mínima en grados centígrados (hora)
DESCASC
Temp. media en grados centígrados
DESCASC
Racha de viento máxima en m/sg (hora)
DESCASC
Velocidad máxima media en intervalos de 10 minutos(hora)
DESCASC
Precipitaciones diarias en mm
DESCASC
Precipitaciones de 00:00 a 06:00 en mm
DESCASC
Precipitaciones de 06:00 a 12:00 en mm
DESCASC
Precipitaciones de 12:00 a 18:00 en mm
DESCASC
Precipitaciones de 18:00 a 24:00 en mm
DESCASC
20-05-2018 22.5 (16:30) 13.6 (06:40) 18.1 12.78 (07:10) 8.89 (04:10) 0 0 0 0 0
19-05-2018 22.2 (12:50) 15.1 (02:50) 18.7 13.61 (00:10) 10.28 (00:10) 0 0 0 0 0
18-05-2018 18.8 (14:40) 12 (00:00) 15.4 18.61 (03:50) 11.39 (02:10) 0 0 0 0 0
17-05-2018 17.9 (17:20) 10.4 (00:00) 14.1 19.44 (20:20) 12.5 (05:00) 0 0 0 0 0
16-05-2018 17.5 (15:10) 10.5 (00:00) 14 21.39 (20:10) 13.89 (20:10) 0 0 0 0 0
15-05-2018 14.8 (17:20) 11 (00:00) 12.9 20.83 (18:50) 12.78 (18:50) 0 0 0 0 0
14-05-2018 13 (19:10) 11.4 (00:00) 12.2 15.28 (08:50) 9.72 (10:40) 1.4 1 0.4 0 0
13-05-2018 13.7 (16:50) 8.5 (00:00) 11.1 13.33 (05:50) 7.78 (05:50) 1 0.2 0 0 0.8
12-05-2018 12.6 (18:10) 8.6 (00:00) 10.6 17.5 (04:20) 8.61 (04:20) 1.4 0.6 0 0 0.8
11-05-2018 14 (00:10) 9.8 (06:40) 11.9 15.83 (14:30) 12.5 (14:50) 4.2 0 2 2.2 0
10-05-2018 16.1 (19:40) 8.9 (00:00) 12.5 17.22 (15:10) 10.83 (17:40) 0 0 0 0 0
09-05-2018 13.4 (15:00) 10.6 (00:00) 12 13.61 (03:10) 8.61 (11:20) 0.4 0 0 0 0.4
08-05-2018 15 (14:00) 10.1 (00:00) 12.6 17.78 (00:20) 12.22 (00:20) 0 0 0 0 0
07-05-2018 22.4 (12:20) 11.8 (00:00) 17.1 17.22 (23:50) 12.5 (22:10) 0 0 0 0 0
06-05-2018 22.3 (13:10) 13.2 (00:00) 17.7 15 (00:20) 11.11 (00:20) 0 0 0 0 0
05-05-2018 20.1 (12:50) 9.4 (00:00) 14.8 17.78 (03:50) 13.06 (03:50) 0 0 0 0 0
04-05-2018 15.9 (14:30) 8.4 (00:00) 12.1 16.11 (12:00) 9.72 (12:00) 0 0 0 0 0
03-05-2018 13 (17:20) 8.1 (00:00) 10.6 18.89 (19:50) 12.5 (20:20) 0 0 0 0 0
02-05-2018 12.6 (15:40) 9 (00:00) 10.8 18.89 (03:40) 14.17 (02:50) 29 6.6 12 8.2 2.2
01-05-2018 16.1 (15:40) 7.3 (03:40) 11.7 18.33 (23:40) 13.89 (23:40) 2.2 0.2 0 0 2
30-04-2018 11.9 (15:40) 7.2 (00:00) 9.5 15.56 (18:00) 10 (18:00) 1.6 1.4 0 0.2 0
29-04-2018 10.7 (16:10) 6.9 (00:00) 8.8 17.78 (20:10) 12.22 (19:40) 4.2 0 2.2 1.2 0.8
28-04-2018 16.8 (14:50) 7.9 (00:00) 12.3 9.17 (16:20) 6.67 (16:20) 2.4 0 0 0 2.4
27-04-2018 13.4 (14:00) 9.3 (00:00) 11.3 13.61 (02:50) 9.17 (03:00) 0 0 0 0 0
26-04-2018 13.7 (13:00) 9.2 (00:00) 11.4 17.78 (19:10) 11.39 (18:50) 0 0 0 0 0
25-04-2018 14.1 (15:50) 10.1 (00:00) 12.1 18.33 (13:50) 12.22 (13:20) 0 0 0 0 0
24-04-2018 14.8 (17:10) 10.7 (00:00) 12.8 20.56 (14:50) 13.89 (08:50) 0 0 0 0 0
23-04-2018 18 (14:10) 10.2 (00:00) 14.1 19.17 (20:20) 13.89 (20:20) 0 0 0 0 0
22-04-2018 15.6 (14:30) 10.6 (00:00) 13.1 16.94 (20:20) 11.39 (22:10) 0 0 0 0 0

Gráficas

Temp. máximas Temp. mínimas Temp. medias Precipitaciones Rachas de viento máximas Velocidades máximas media en intervalos de 10 minutos

Datos horarios

Fecha y hora oficial Temperatura (ºC) Velocidad del viento (km/h) Dirección del viento Racha (km/h) Dirección de racha Precipitación (mm) Presión (hPa) Tendencia (hPa) Humedad (%)
2018-05-21 23:00:00 11.9 8 Este 11 Sudeste 0 986.1 1 84
2018-05-21 22:00:00 13.2 7 Sudeste 9 Sudeste 0 985.9 1.2 79
2018-05-21 21:00:00 13.7 3 Sudeste 15 Sur 0 985.5 1 77
2018-05-21 20:00:00 15.4 9 Sur 21 Sur 0 985.1 0.7 73
2018-05-21 19:00:00 16.4 13 Sur 27 Sur 0 984.7 0.2 69
2018-05-21 18:00:00 17.6 14 Sur 25 Sudoeste 0 984.5 0 69
2018-05-21 17:00:00 17.2 14 Sur 27 Sudoeste 0 984.4 -0.2 71
2018-05-21 16:00:00 17.7 15 Sur 30 Sur 0 984.5 0.2 69
2018-05-21 15:00:00 17.3 14 Sur 30 Sudoeste 0 984.5 0.3 71
2018-05-21 14:00:00 16.4 16 Sur 44 Sur 0 984.6 0.8 72
2018-05-21 13:00:00 15.8 21 Sur 49 Sur 0 984.3 0.8 77
2018-05-21 12:00:00 14 23 Sur 53 Sur 0 984.2 0.9 81
2018-05-21 11:00:00 13.2 36 Sur 57 Sur 0 983.8 0.6 82
2018-05-21 10:00:00 12.7 34 Sur 57 Sur 0 983.5 0.3 85
2018-05-21 09:00:00 12.2 33 Sur 53 Sur 0 983.3 0.6 90
2018-05-21 08:00:00 12.1 32 Sur 48 Sur 0 983.2 0.1 92
2018-05-21 07:00:00 12 26 Sur 44 Sur 0 983.2 -0.2 92
2018-05-21 06:00:00 11.8 31 Sudeste 42 Sur 0 982.7 -1.1 93
2018-05-21 05:00:00 11.8 26 Sudeste 34 Sudeste 0 983.1 -1.2 93
2018-05-21 04:00:00 12.1 18 Sudeste 33 Sur 0 983.4 -1 93
2018-05-21 03:00:00 12.4 21 Sudeste 30 Sur 0 983.8 -0.7 93
2018-05-21 02:00:00 12.6 21 Sudeste 30 Sudeste 0 984.3 0.1 92
2018-05-21 01:00:00 13.1 17 Sur 30 Sur 0 984.4 1.1 91
2018-05-21 00:00:00 13.6 19 Sur 28 Sur 0 984.5 1.1 84
2018-05-20 23:00:00 15.3 6 Sudeste 24 Este 0 984.2 0.8 68
2018-05-20 22:00:00 17.9 16 Este 25 Este 0 983.3 -0.4 56
2018-05-20 21:00:00 19.5 14 Este 23 Este 0 983.4 -0.6 53
2018-05-20 20:00:00 21.3 9 Nordeste 18 Nordeste 0 983.4 -1.4 53
2018-05-20 19:00:00 21.2 9 Nordeste 14 Nordeste 0 983.7 -1.7 60
2018-05-20 18:00:00 21.5 9 Norte 13 Norte 0 984 -1.9 59
2018-05-20 17:00:00 22 6 Noroeste 10 Oeste 0 984.8 -1.6 47
2018-05-20 16:00:00 21.7 5 Sur 16 Sur 0 985.4 -1.3 48
2018-05-20 15:00:00 20.2 11 Sur 17 Sur 0 985.9 -1 51
2018-05-20 14:00:00 20.7 4 Noroeste 14 Nordeste 0 986.4 -0.7 56
2018-05-20 13:00:00 18.4 9 Norte 13 Norte 0 986.7 -0.2 58
2018-05-20 12:00:00 20.5 3 Oeste 17 Sudeste 0 986.9 -0.2 50
2018-05-20 11:00:00 20.4 13 Este 30 Este 0 987.1 0.1 43
2018-05-20 10:00:00 18.4 20 Este 32 Este 0 986.9 -0.1 40
2018-05-20 09:00:00 16.8 22 Este 40 Este 0 987.1 -0.3 40
2018-05-20 08:00:00 15.7 26 Este 46 Este 0 987 -0.6 38
2018-05-20 07:00:00 14.4 30 Este 39 Este 0 987 -1 37
2018-05-20 06:00:00 15.3 28 Este 43 Este 0 987.4 -1.2 34
2018-05-20 05:00:00 16.5 27 Este 45 Este 0 987.6 -1.6 30
2018-05-20 04:00:00 16.4 31 Este 45 Este 0 988 -1.6 34
2018-05-20 03:00:00 17 28 Este 41 Este 0 988.6 -1.2 37
2018-05-20 02:00:00 17.3 22 Este 30 Este 0 989.2 0 46
2018-05-20 01:00:00 17.5 22 Este 37 Este 0 989.6 0.8 50
2018-05-20 00:00:00 18.7 26 Este 41 Este 0 989.8 0.9 47
2018-05-19 23:00:00 19 29 Este 39 Este 0 989.2 0.2 48
2018-05-19 22:00:00 19.5 26 Nordeste 33 Nordeste 0 988.8 -0.8 54
2018-05-19 21:00:00 20.9 19 Nordeste 31 Nordeste 0 988.9 -1.1 54
2018-05-19 20:00:00 21.1 22 Nordeste 29 Nordeste 0 989 -1.2 55
2018-05-19 19:00:00 21.2 19 Norte 33 Norte 0 989.6 -0.8 52
2018-05-19 18:00:00 20.9 21 Norte 31 Norte 0 990 -0.6 50
2018-05-19 17:00:00 20.5 20 Norte 31 Norte 0 990.2 -0.8 54
2018-05-19 16:00:00 20.5 13 Norte 20 Norte 0 990.4 -0.6 56
2018-05-19 15:00:00 21.6 11 Noroeste 16 Oeste 0 990.6 0 51
2018-05-19 14:00:00 21.3 12 Oeste 17 Oeste 0 991 0.5 56
2018-05-19 13:00:00 22 12 Sudoeste 19 Sudoeste 0 991 0.7 56
2018-05-19 12:00:00 21 10 Sur 23 Sur 0 990.6 1.2 55
2018-05-19 11:00:00 20.4 15 Sur 21 Sur 0 990.5 1.6 54
2018-05-19 10:00:00 20.8 14 Sur 30 Sudeste 0 990.3 1.8 53
2018-05-19 09:00:00 20.1 19 Sudeste 28 Sudeste 0 989.4 1.3 53
2018-05-19 08:00:00 18.7 15 Sudeste 21 Sudeste 0 988.9 0.6 57
2018-05-19 07:00:00 18.1 9 Este 13 Este 0 988.5 0.3 59
2018-05-19 06:00:00 17.7 3 Este 5 Sudeste 0 988.1 -0.2 61
2018-05-19 05:00:00 17 3 Este 16 Sudeste 0 988.3 -0.4 65
2018-05-19 04:00:00 16.5 10 Sudeste 25 Este 0 988.2 -0.5 67
2018-05-19 03:00:00 15.4 13 Este 19 Este 0 988.3 0.1 73
2018-05-19 02:00:00 15.7 8 Este 31 Este 0 988.7 0.3 72
2018-05-19 01:00:00 16.1 10 Sudeste 49 Este 0 988.7 0.4 70
2018-05-19 00:00:00 16 35 Este 54 Este 0 988.2 0.3 71
2018-05-18 23:00:00 15.4 39 Este 57 Este 0 988.4 0.7 75
2018-05-18 22:00:00 15 23 Nordeste 43 Nordeste 0 988.3 0.5 79
2018-05-18 21:00:00 15.2 36 Nordeste 53 Nordeste 0 987.9 -0.1 80
2018-05-18 20:00:00 15.8 37 Nordeste 55 Nordeste 0 987.7 -0.4 79
2018-05-18 19:00:00 16.2 35 Nordeste 55 Nordeste 0 987.8 -0.6 79
2018-05-18 18:00:00 17.5 36 Nordeste 50 Nordeste 0 988 -0.6 74
2018-05-18 17:00:00 17.3 35 Nordeste 51 Nordeste 0 988.1 -1 76
2018-05-18 16:00:00 17 34 Nordeste 48 Nordeste 0 988.4 -1.3 79
2018-05-18 15:00:00 17.4 28 Nordeste 43 Norte 0 988.6 -1.5 76
2018-05-18 14:00:00 17.3 22 Norte 39 Norte 0 989.1 -1.2 75
2018-05-18 13:00:00 15.7 18 Norte 33 Norte 0 989.7 -0.6 80
2018-05-18 12:00:00 16.2 14 Norte 33 Nordeste 0 990.1 0.4 76
2018-05-18 11:00:00 15.3 16 Nordeste 39 Nordeste 0 990.3 1 79
2018-05-18 10:00:00 14.6 15 Nordeste 39 Nordeste 0 990.3 1.5 82
2018-05-18 09:00:00 12.7 26 Norte 50 Nordeste 0 989.7 1.4 88
2018-05-18 08:00:00 12.5 31 Nordeste 55 Nordeste 0 989.3 0.9 87
2018-05-18 07:00:00 12.1 38 Nordeste 61 Nordeste 0 988.8 0.5 90
2018-05-18 06:00:00 12 31 Nordeste 62 Nordeste 0 988.3 -0.5 91
2018-05-18 05:00:00 12.1 33 Nordeste 65 Nordeste 0 988.4 -0.5 90
2018-05-18 04:00:00 12.2 33 Nordeste 67 Nordeste 0 988.3 -0.6 90
2018-05-18 03:00:00 12 32 Nordeste 63 Nordeste 0 988.8 0 90
2018-05-18 02:00:00 12.2 39 Nordeste 63 Nordeste 0 988.9 0.3 91
2018-05-18 01:00:00 12.1 36 Nordeste 64 Nordeste 0 988.9 0.5 91
2018-05-18 00:00:00 12.2 40 Nordeste 60 Norte 0 988.8 0.9 89
2018-05-17 23:00:00 12.4 33 Nordeste 49 Norte 0 988.6 1 89
2018-05-17 22:00:00 12.8 28 Nordeste 56 Nordeste 0 988.4 0.4 85
2018-05-17 21:00:00 14.2 33 Nordeste 70 Nordeste 0 987.9 -0.2 77
2018-05-17 20:00:00 15.7 28 Norte 48 Nordeste 0 987.6 -0.7 70
2018-05-17 19:00:00 16.3 25 Nordeste 44 Nordeste 0 988 -0.2 69
2018-05-17 18:00:00 17 27 Norte 46 Nordeste 0 988.1 -0.3 68
2018-05-17 17:00:00 17.4 30 Nordeste 54 Nordeste 0 988.3 -0.5 69
2018-05-17 16:00:00 15.8 33 Nordeste 52 Norte 0 988.2 -0.5 76
2018-05-17 15:00:00 17.2 27 Nordeste 40 Norte 0 988.4 -0.2 73
2018-05-17 14:00:00 16.7 20 Norte 39 Norte 0 988.8 0.3 73
2018-05-17 13:00:00 16 27 Norte 41 Nordeste 0 988.7 0.7 74
2018-05-17 12:00:00 15.8 23 Nordeste 49 Nordeste 0 988.6 0.7 73
2018-05-17 11:00:00 15.1 24 Nordeste 50 Nordeste 0 988.5 0.7 75
2018-05-17 10:00:00 13.1 32 Nordeste 53 Nordeste 0 988 0.2 81
2018-05-17 09:00:00 11.8 33 Nordeste 52 Nordeste 0 987.9 0.1 86
2018-05-17 08:00:00 11 31 Nordeste 57 Nordeste 0 987.8 0.2 87
2018-05-17 07:00:00 10.5 26 Nordeste 60 Nordeste 0 987.8 -0.5 89
2018-05-17 06:00:00 10.6 32 Nordeste 67 Nordeste 0 987.8 -1.2 89
2018-05-17 05:00:00 10.6 45 Nordeste 63 Nordeste 0 987.6 -1.8 88
2018-05-17 04:00:00 10.6 36 Nordeste 52 Nordeste 0 988.3 -0.7 88
2018-05-17 03:00:00 10.6 28 Nordeste 44 Nordeste 0 989 -0.5 87
2018-05-17 02:00:00 10.7 28 Nordeste 58 Nordeste 0 989.4 0.3 86
2018-05-17 01:00:00 10.8 39 Nordeste 63 Nordeste 0 989 0.2 86
2018-05-17 00:00:00 10.9 35 Nordeste 53 Nordeste 0 989.5 0.6 86
2018-05-16 23:00:00 11.3 37 Nordeste 65 Nordeste 0 989.1 0.9 85
2018-05-16 22:00:00 11.7 39 Nordeste 67 Nordeste 0 988.8 0.2 82
2018-05-16 21:00:00 13 28 Nordeste 77 Nordeste 0 988.9 -0.1 76
2018-05-16 20:00:00 13.9 50 Nordeste 74 Nordeste 0 988.2 -1.1 74
2018-05-16 19:00:00 14.9 45 Nordeste 71 Nordeste 0 988.6 -1.2 75
2018-05-16 18:00:00 15.6 35 Nordeste 60 Nordeste 0 989 -1.8 71
2018-05-16 17:00:00 16 39 Nordeste 66 Nordeste 0 989.3 -1.6 68
2018-05-16 16:00:00 15.8 36 Nordeste 58 Nordeste 0 989.8 -1.7 70
2018-05-16 15:00:00 17.1 22 Nordeste 58 Nordeste 0 990.8 -1.2 64
2018-05-16 14:00:00 16.5 38 Nordeste 65 Nordeste 0 990.9 -1.1 64
2018-05-16 13:00:00 15.8 38 Nordeste 62 Este 0 991.5 -0.6 69
2018-05-16 12:00:00 15.3 28 Nordeste 61 Nordeste 0 992 0.7 69
2018-05-16 11:00:00 14.8 27 Nordeste 59 Nordeste 0 992 0.7 70
2018-05-16 10:00:00 14.1 24 Nordeste 70 Este 0 992.1 0.1 73
2018-05-16 09:00:00 12.3 38 Nordeste 73 Nordeste 0 991.3 -0.8 80
2018-05-16 08:00:00 11 41 Nordeste 60 Nordeste 0 991.3 -1.2 86
2018-05-16 07:00:00 10.6 28 Nordeste 47 Este 0 992 -0.8 86
2018-05-16 06:00:00 10.9 24 Nordeste 50 Nordeste 0 992.1 -1.2 82
2018-05-16 05:00:00 10.9 19 Nordeste 54 Nordeste 0 992.5 -1.4 82
2018-05-16 04:00:00 11 23 Nordeste 62 Nordeste 0 992.8 -1.5 85
2018-05-16 03:00:00 11 26 Nordeste 55 Nordeste 0 993.3 -1.4 86
2018-05-16 02:00:00 10.9 28 Nordeste 52 Nordeste 0 993.9 -0.4 85
2018-05-16 01:00:00 11.3 34 Nordeste 60 Nordeste 0 994.3 0.2 85
2018-05-16 00:00:00 11.4 30 Nordeste 56 Nordeste 0 994.7 0.7 87
2018-05-15 23:00:00 11.4 32 Nordeste 62 Nordeste 0 994.3 0.6 85
2018-05-15 22:00:00 11.9 33 Nordeste 63 Nordeste 0 994.1 0.3 85
2018-05-15 21:00:00 12.8 35 Nordeste 61 Nordeste 0 994 -0.5 84
2018-05-15 20:00:00 13.7 36 Nordeste 72 Nordeste 0 993.7 -0.9 81
2018-05-15 19:00:00 13.7 45 Nordeste 75 Nordeste 0 993.8 -1.3 80
2018-05-15 18:00:00 14.5 32 Nordeste 54 Nordeste 0 994.5 -1.1 80
2018-05-15 17:00:00 14.6 31 Nordeste 54 Nordeste 0 994.6 -1.5 81
2018-05-15 16:00:00 14.4 29 Nordeste 48 Nordeste 0 995.1 -1.4 81
2018-05-15 15:00:00 13.8 26 Nordeste 51 Norte 0 995.6 -0.8 85
2018-05-15 14:00:00 13.8 25 Nordeste 41 Nordeste 0 996.1 -0.4 86
2018-05-15 13:00:00 12.6 26 Norte 40 Norte 0 996.5 -0.1 90
2018-05-15 12:00:00 12.6 23 Nordeste 38 Nordeste 0 996.4 -0.4 92
2018-05-15 11:00:00 11.8 23 Nordeste 40 Norte 0 996.5 -0.1 95
2018-05-15 10:00:00 11.7 22 Nordeste 37 Norte 0 996.6 0.2 94
2018-05-15 09:00:00 11.5 23 Nordeste 40 Nordeste 0 996.8 0.4 95
2018-05-15 08:00:00 11.2 24 Nordeste 37 Nordeste 0 996.6 0.2 95
2018-05-15 07:00:00 11.1 22 Nordeste 39 Nordeste 0 996.4 0 95
2018-05-15 06:00:00 11.4 21 Nordeste 41 Nordeste 0 996.4 -0.2 94
2018-05-15 05:00:00 11.5 22 Nordeste 39 Nordeste 0 996.4 -0.6 95
2018-05-15 04:00:00 11.4 26 Nordeste 40 Nordeste 0 996.4 -1 96
2018-05-15 03:00:00 11.7 26 Nordeste 45 Nordeste 0 996.6 -1 96
2018-05-15 02:00:00 11.7 23 Nordeste 40 Nordeste 0 997 -0.5 96
2018-05-15 01:00:00 11.7 24 Nordeste 40 Norte 0 997.4 0.4 96
2018-05-15 00:00:00 11.8 25 Nordeste 42 Nordeste 0 997.6 0.7 96
2018-05-14 23:00:00 12 27 Nordeste 46 Norte 0 997.5 0.8 96
2018-05-14 22:00:00 12 30 Norte 46 Norte 0 997 0.2 96
2018-05-14 21:00:00 12.1 27 Norte 46 Norte 0 996.9 0.1 96
2018-05-14 20:00:00 12.5 28 Norte 46 Norte 0 996.7 -0.2 96
2018-05-14 19:00:00 12.8 30 Norte 47 Norte 0 996.8 -0.3 96
2018-05-14 18:00:00 12.5 30 Norte 47 Norte 0 996.8 -0.5 96
2018-05-14 17:00:00 12.4 31 Norte 51 Nordeste 0 996.9 -0.3 96
2018-05-14 16:00:00 12.3 32 Norte 48 Norte 0 997.1 -0.2 96
2018-05-14 15:00:00 12.4 29 Norte 52 Norte 0 997.3 0.3 96
2018-05-14 14:00:00 12.1 31 Norte 54 Nordeste 0 997.2 0.5 96
2018-05-14 13:00:00 11.8 32 Norte 52 Norte 0 997.3 0.7 96
2018-05-14 12:00:00 11.7 32 Norte 53 Norte 0 997 0.5 96
2018-05-14 11:00:00 11.8 34 Norte 54 Noroeste 0.2 996.7 0.5 96
2018-05-14 10:00:00 11.8 32 Norte 51 Norte 0 996.6 0.7 96
2018-05-14 09:00:00 11.8 27 Norte 55 Norte 0.2 996.5 0.4 96
2018-05-14 08:00:00 11.7 24 Norte 42 Norte 0 996.2 0 96
2018-05-14 07:00:00 11.6 27 Norte 41 Norte 0 995.9 -0.4 96
2018-05-14 06:00:00 11.4 27 Norte 46 Norte 0 996.1 -0.5 96
2018-05-14 05:00:00 11.7 31 Norte 49 Norte 0.2 996.2 -0.5 95
2018-05-14 04:00:00 11.9 29 Norte 41 Norte 0.4 996.3 -0.6 95
2018-05-14 03:00:00 11.9 18 Noroeste 39 Norte 0 996.6 -0.6 95
2018-05-14 02:00:00 11.9 14 Noroeste 36 Noroeste 0.2 996.7 -0.5 95
2018-05-14 01:00:00 11.7 13 Noroeste 42 Noroeste 0.2 996.9 -0.1 95
2018-05-11 20:00:00 12.6 10 Noroeste 27 Noroeste 0 991 0.8 72
2018-05-11 19:00:00 12.8 14 Noroeste 31 Norte 0 990.6 0.7 77
2018-05-11 18:00:00 12.5 17 Norte 30 Norte 0 990.4 0.8 85
2018-05-11 17:00:00 12.1 14 Noroeste 24 Norte 0 990.2 0.8 89
2018-05-11 16:00:00 10.9 18 Norte 53 Sudoeste 0.6 989.9 0.4 94
2018-05-11 15:00:00 11.5 42 Sudoeste 57 Sudoeste 0.2 989.6 0.2 94
2018-05-11 14:00:00 11.1 34 Sudoeste 55 Sudoeste 0.6 989.4 0.6 94
2018-05-11 13:00:00 10.8 31 Sur 52 Sudoeste 0.8 989.5 1.1 94
2018-05-11 12:00:00 10.5 28 Sur 49 Sudoeste 0.8 989.4 0.9 93
2018-05-11 11:00:00 10.7 26 Sur 49 Sur 0 988.8 0.3 91
2018-05-11 10:00:00 10.2 25 Sur 44 Sudoeste 1 988.4 0.8 90
2018-05-11 09:00:00 10.4 27 Sur 43 Sudoeste 0.2 988.5 0.3 87
2018-05-11 08:00:00 10.1 29 Sudoeste 36 Sudoeste 0 988.5 0.4 85
2018-05-11 07:00:00 9.9 26 Sudoeste 31 Oeste 0 987.6 -0.4 84
2018-05-11 06:00:00 10.2 24 Oeste 33 Oeste 0 988.2 0.5 82
2018-05-11 05:00:00 10.1 26 Oeste 35 Oeste 0 988.1 0.4 83
2018-05-11 04:00:00 10.3 21 Noroeste 34 Noroeste 0 988 0.5 90
2018-05-11 03:00:00 10.4 18 Noroeste 29 Oeste 0 987.7 -0.3 91
2018-05-11 02:00:00 11.2 18 Noroeste 27 Noroeste 0 987.7 -0.1 88
2018-05-11 01:00:00 12.8 16 Sudoeste 18 Sudoeste 0 987.5 -0.6 69
2018-05-11 00:00:00 13.8 12 Oeste 15 Oeste 0 988 0.1 66
2018-05-10 23:00:00 14.9 6 Sudoeste 9 Sudoeste 0 987.8 -0.2 60
2018-05-10 22:00:00 15.3 3 Noroeste 11 Este 0 988.1 0.1 59
2018-05-10 21:00:00 15.5 11 Este 23 Nordeste 0 987.9 -0.7 60
2018-05-10 20:00:00 15.7 15 Nordeste 37 Este 0 988 -1.4 62
2018-05-10 19:00:00 15.5 23 Nordeste 49 Nordeste 0 988 -2.1 61
2018-05-10 18:00:00 14.2 33 Nordeste 57 Norte 0 988.6 -2.2 66
2018-05-10 17:00:00 13.4 34 Norte 52 Norte 0 989.4 -2.6 70
2018-05-10 16:00:00 13.4 33 Norte 62 Nordeste 0 990.1 -2.6 71
2018-05-10 15:00:00 13.2 35 Norte 55 Norte 0 990.8 -2.4 72
2018-05-10 14:00:00 13.5 24 Norte 40 Norte 0 992 -1.4 69
2018-05-10 13:00:00 14.2 23 Nordeste 46 Nordeste 0 992.7 -0.7 61
2018-05-10 12:00:00 12.7 24 Nordeste 41 Nordeste 0 993.2 0 68
2018-05-10 11:00:00 12 26 Nordeste 47 Nordeste 0 993.4 0.5 73
2018-05-10 10:00:00 10.9 27 Nordeste 48 Nordeste 0 993.4 1.2 80
2018-05-10 09:00:00 10.2 27 Nordeste 37 Nordeste 0 993.2 1.3 83
2018-05-10 08:00:00 9.3 28 Nordeste 34 Nordeste 0 992.9 1 84
2018-05-10 07:00:00 9.1 26 Nordeste 35 Nordeste 0 992.2 0.2 85
2018-05-10 06:00:00 9 28 Nordeste 39 Nordeste 0 991.9 -0.2 85
2018-05-10 05:00:00 9.3 24 Nordeste 37 Nordeste 0 991.9 -0.4 85
2018-05-10 04:00:00 9.5 24 Nordeste 42 Nordeste 0 992 0 86
2018-05-10 03:00:00 10.2 27 Nordeste 40 Nordeste 0 992.1 0.2 89
2018-05-10 02:00:00 10 25 Nordeste 46 Nordeste 0 992.3 0.6 91
2018-05-10 01:00:00 10.4 31 Nordeste 48 Nordeste 0 992 0.9 93
2018-05-10 00:00:00 10.8 31 Nordeste 49 Nordeste 0.4 991.9 1.4 94
2018-05-09 23:00:00 11.1 11 Norte 28 Noroeste 0 991.7 1.4 93
2018-05-09 22:00:00 11.4 14 Noroeste 29 Norte 0 991.1 0.7 88
2018-05-09 21:00:00 11.6 16 Norte 24 Norte 0 990.5 0.3 85
2018-05-09 20:00:00 11.9 17 Norte 30 Norte 0 990.3 0.5 80
2018-05-09 19:00:00 12.2 19 Norte 27 Norte 0 990.4 0.7 82
2018-05-09 18:00:00 12.1 21 Norte 32 Norte 0 990.2 0.4 82
2018-05-09 17:00:00 12.6 17 Norte 31 Norte 0 989.8 0 78
2018-05-09 16:00:00 12.7 22 Norte 32 Norte 0 989.7 -0.1 78
2018-05-09 15:00:00 13.4 23 Norte 33 Norte 0 989.8 0.4 77
2018-05-09 14:00:00 12.8 22 Norte 36 Norte 0 989.8 0.8 80
2018-05-09 13:00:00 12.4 24 Norte 44 Norte 0 989.8 1.1 82
2018-05-09 12:00:00 11.7 26 Norte 45 Norte 0 989.4 0.8 81
2018-05-09 11:00:00 11.8 24 Norte 37 Norte 0 989 0.7 81
2018-05-09 10:00:00 11.5 20 Norte 37 Nordeste 0 988.7 0.8 82
2018-05-09 09:00:00 10.8 27 Nordeste 39 Nordeste 0 988.6 0.7 87
2018-05-09 08:00:00 10.7 23 Nordeste 41 Nordeste 0 988.3 0.1 89
2018-05-09 07:00:00 10.7 24 Norte 39 Nordeste 0 987.9 -0.3 89
2018-05-09 06:00:00 10.8 25 Nordeste 37 Nordeste 0 987.9 -0.9 89
2018-05-09 05:00:00 10.8 22 Nordeste 44 Nordeste 0 988.2 -1.2 91
2018-05-09 04:00:00 11 30 Nordeste 49 Nordeste 0 988.2 -1.2 94
2018-05-09 03:00:00 11 27 Nordeste 44 Norte 0 988.8 -0.6 95
2018-05-09 02:00:00 11.3 27 Nordeste 45 Nordeste 0 989.4 0.1 96
2018-05-09 01:00:00 11.9 28 Norte 42 Nordeste 0 989.4 0.4 96
2018-05-09 00:00:00 12.2 24 Nordeste 45 Nordeste 0 989.4 -0.1 96
2018-05-08 23:00:00 12.1 32 Nordeste 51 Nordeste 0 989.3 -0.1 96
2018-05-08 22:00:00 11.9 33 Nordeste 48 Nordeste 0 989 -0.5 95
2018-05-08 21:00:00 12 34 Nordeste 47 Nordeste 0 989.5 0 95
2018-05-08 20:00:00 12.1 26 Nordeste 51 Nordeste 0 989.4 -0.2 95
2018-05-08 19:00:00 12.2 30 Norte 55 Norte 0 989.5 -0.4 94
2018-05-08 18:00:00 12.8 32 Norte 55 Norte 0 989.5 -0.4 89
2018-05-08 17:00:00 12.6 38 Norte 57 Norte 0 989.6 -0.7 88
2018-05-08 16:00:00 14 30 Norte 48 Norte 0 989.9 -0.7 85
2018-05-08 15:00:00 13.6 35 Norte 54 Nordeste 0 989.9 -0.9 87
2018-05-08 14:00:00 14.5 27 Norte 44 Nordeste 0 990.3 -0.1 81
2018-05-08 13:00:00 13.4 31 Nordeste 50 Nordeste 0 990.6 0.5 84
2018-05-08 12:00:00 12.4 32 Nordeste 60 Norte 0 990.8 1.2 85
2018-05-08 11:00:00 10.4 39 Norte 64 Norte 0 990.4 1 89
2018-05-08 10:00:00 11.4 24 Norte 38 Norte 0 990.1 0.9 89
2018-05-08 09:00:00 10.3 16 Nordeste 33 Nordeste 0 989.6 0.8 95
2018-05-08 08:00:00 10.2 24 Nordeste 45 Nordeste 0 989.4 0.8 95
2018-05-08 07:00:00 10.3 29 Norte 55 Nordeste 0 989.2 0.5 95
2018-05-08 06:00:00 10.2 36 Nordeste 56 Nordeste 0 988.8 -0.1 94
2018-05-08 05:00:00 10.4 37 Nordeste 52 Nordeste 0 988.6 -0.9 94
2018-05-08 04:00:00 10.7 28 Nordeste 50 Norte 0 988.7 -0.9 94
2018-05-08 03:00:00 10.7 35 Nordeste 51 Nordeste 0 988.9 -0.8 93
2018-05-08 02:00:00 11 37 Nordeste 52 Nordeste 0 989.5 0.5 94
2018-05-08 01:00:00 11.5 35 Nordeste 64 Nordeste 0 989.6 1.8 94
2018-05-08 00:00:00 11.8 34 Nordeste 62 Norte 0 989.7 2.2 94
2018-05-07 23:00:00 12.4 32 Norte 59 Nordeste 0 989 1.7 94
2018-05-07 22:00:00 12.6 45 Nordeste 58 Nordeste 0 987.8 0.6 91
2018-05-07 21:00:00 14 35 Nordeste 50 Nordeste 0 987.5 0.3 87
2018-05-07 20:00:00 16.2 33 Nordeste 49 Nordeste 0 987.3 -0.1 77
2018-05-07 19:00:00 15.6 32 Nordeste 49 Nordeste 0 987.2 -0.6 81
2018-05-07 18:00:00 18.2 36 Nordeste 47 Nordeste 0 987.2 -1.1 71
2018-05-07 17:00:00 20.6 27 Nordeste 42 Nordeste 0 987.4 -1.4 66
2018-05-07 16:00:00 18.7 28 Nordeste 37 Nordeste 0 987.8 -1.1 72
2018-05-07 15:00:00 18.5 25 Nordeste 34 Nordeste 0 988.3 -0.7 75
2018-05-07 14:00:00 19.3 18 Nordeste 23 Nordeste 0 988.8 0.2 71
2018-05-07 13:00:00 20.8 5 Norte 10 Nordeste 0 988.9 0.5 66
2018-05-07 12:00:00 21.8 3 Oeste 10 Este 0 989 0.8 62
2018-05-07 11:00:00 21.4 3 Oeste 10 Este 0 988.6 0.7 58
2018-05-07 10:00:00 20.6 8 Este 12 Este 0 988.4 0.7 55
2018-05-07 09:00:00 20.5 9 Este 14 Este 0 988.2 0.3 51
2018-05-07 08:00:00 19.3 11 Este 13 Este 0 987.9 0 50
2018-05-07 07:00:00 18.7 6 Este 10 Este 0 987.7 -0.1 51
2018-05-07 06:00:00 18.7 5 Este 6 Nordeste 0 987.9 -0.3 49
2018-05-07 05:00:00 17.9 5 Oeste 9 Sudoeste 0 987.9 -0.4 53
2018-05-07 04:00:00 17.6 7 Sudoeste 13 Sudoeste 0 987.8 -0.5 57
2018-05-07 03:00:00 18.1 10 Sudoeste 15 Sur 0 988.2 -0.2 55
2018-05-07 02:00:00 19.1 9 Sur 16 Sudeste 0 988.3 0.1 49
2018-05-07 01:00:00 19.4 12 Sudeste 18 Este 0 988.3 0.6 45
2018-05-07 00:00:00 19.5 17 Nordeste 27 Nordeste 0 988.4 0.7 44
2018-05-06 23:00:00 19.7 23 Nordeste 30 Nordeste 0 988.2 0.7 45
2018-05-06 22:00:00 18.2 27 Nordeste 30 Norte 0 987.7 -0.2 54
2018-05-06 21:00:00 19.3 25 Norte 30 Norte 0 987.7 -0.2 52
2018-05-06 20:00:00 19.2 24 Norte 31 Norte 0 987.5 -0.7 54
2018-05-06 19:00:00 20.2 21 Norte 27 Norte 0 987.9 -0.6 54
2018-05-06 18:00:00 20.1 19 Norte 26 Norte 0 987.9 -0.7 54
2018-05-06 17:00:00 20.2 9 Norte 19 Norte 0 988.2 -0.5 56
2018-05-06 16:00:00 18.6 8 Norte 17 Noroeste 0 988.5 -0.3 57
2018-05-06 15:00:00 20 3 Noroeste 13 Sudoeste 0 988.6 -0.2 54
2018-05-06 14:00:00 21.8 8 Sudoeste 14 Sudoeste 0 988.7 0 52
2018-05-06 13:00:00 22 6 Sudoeste 14 Sudoeste 0 988.8 0.4 55
2018-05-06 12:00:00 20.2 6 Sudeste 11 Sudeste 0 988.8 0.5 57
2018-05-06 11:00:00 18.5 3 Este 9 Sur 0 988.7 0.8 59
2018-05-06 10:00:00 17 5 Oeste 8 Sudoeste 0 988.4 0.8 56
2018-05-06 09:00:00 16.6 8 Sudoeste 12 Sudoeste 0 988.3 0.6 59
2018-05-06 08:00:00 15.6 8 Sur 10 Sur 0 987.9 0.2 61
2018-05-06 07:00:00 14.9 8 Sudoeste 10 Sudoeste 0 987.6 -0.1 63
2018-05-06 06:00:00 15.2 10 Sudeste 12 Sur 0 987.7 -0.2 62
2018-05-06 05:00:00 15.3 2 Oeste 13 Sudeste 0 987.7 -0.4 60
2018-05-06 04:00:00 14.9 11 Sudeste 22 Sudeste 0 987.7 -0.5 62
2018-05-06 03:00:00 13.8 13 Este 36 Este 0 987.9 -0.8 65
2018-05-06 02:00:00 13.9 30 Este 51 Este 0 988.1 -0.4 64
2018-05-06 01:00:00 13.7 35 Este 54 Este 0 988.2 0.1 66
2018-05-06 00:00:00 13.5 25 Nordeste 48 Este 0 988.7 0.7 69
2018-05-05 23:00:00 14.8 36 Este 55 Este 0 988.5 0.5 63
2018-05-05 22:00:00 15 33 Este 51 Nordeste 0 988.1 -0.2 66
2018-05-05 21:00:00 16.2 27 Nordeste 37 Nordeste 0 988 0 64
2018-05-05 20:00:00 18.1 26 Nordeste 44 Nordeste 0 988 -0.4 56
2018-05-05 19:00:00 18.8 15 Norte 49 Nordeste 0 988.3 -0.5 61
2018-05-05 18:00:00 18.6 31 Nordeste 44 Nordeste 0 988 -1.1 62
2018-05-05 17:00:00 19.1 25 Nordeste 38 Nordeste 0 988.4 -1.1 62
2018-05-05 16:00:00 16.9 33 Nordeste 43 Nordeste 0 988.8 -1.2 69
2018-05-05 15:00:00 16.6 24 Nordeste 33 Nordeste 0 989.1 -1.1 69
2018-05-05 14:00:00 15.7 26 Nordeste 32 Nordeste 0 989.5 -0.7 70
2018-05-05 13:00:00 19.7 7 Nordeste 15 Nordeste 0 990 -0.1 53
2018-05-05 12:00:00 18.6 3 Norte 14 Este 0 990.2 0.2 51
2018-05-05 11:00:00 17.5 7 Este 16 Este 0 990.2 0.6 51
2018-05-05 10:00:00 14.9 11 Este 24 Este 0 990.1 0.8 54
2018-05-05 09:00:00 13.1 15 Este 37 Este 0 990 1.2 55
2018-05-05 08:00:00 11.2 28 Este 44 Este 0 989.6 0.8 59
2018-05-05 07:00:00 10.7 34 Este 54 Este 0 989.3 0.4 59
2018-05-05 06:00:00 10.8 37 Este 54 Este 0 988.8 -1 59
2018-05-05 05:00:00 10.3 38 Este 54 Este 0 988.8 -1.7 63
2018-05-05 04:00:00 9.6 39 Nordeste 64 Nordeste 0 988.9 -1.9 77
2018-05-05 03:00:00 9.8 32 Este 63 Nordeste 0 989.8 -1 77
2018-05-05 02:00:00 10 24 Nordeste 50 Nordeste 0 990.5 -0.2 77
2018-05-05 01:00:00 10.2 20 Norte 45 Nordeste 0 990.8 0.4 77
2018-05-05 00:00:00 10.1 5 Sudoeste 48 Nordeste 0 990.8 0.8 78
2018-05-04 23:00:00 10.5 19 Nordeste 44 Nordeste 0 990.7 0.8 78
2018-05-04 22:00:00 10.9 16 Nordeste 49 Nordeste 0 990.4 0.9 77
2018-05-04 21:00:00 12.1 26 Nordeste 46 Nordeste 0 990 -0.1 72
2018-05-04 20:00:00 13.6 9 Nordeste 48 Nordeste 0 989.9 -0.5 68
2018-05-04 19:00:00 13.6 30 Norte 55 Nordeste 0 989.5 -1.4 70
2018-05-04 18:00:00 14.2 31 Norte 52 Norte 0 990.1 -1.1 68
2018-05-04 17:00:00 14.4 30 Norte 49 Norte 0 990.4 -1.4 68
2018-05-04 16:00:00 14.8 28 Norte 47 Norte 0 990.9 -1.5 68
2018-05-04 15:00:00 15.6 21 Nordeste 42 Nordeste 0 991.2 -1.6 66
2018-05-04 14:00:00 15.3 25 Nordeste 48 Nordeste 0 991.8 -1.1 60
2018-05-04 13:00:00 14.6 19 Nordeste 49 Este 0 992.4 -1.1 64
2018-05-04 12:00:00 13.1 35 Nordeste 58 Nordeste 0 992.8 -0.3 68
2018-05-04 11:00:00 12.2 25 Nordeste 56 Este 0 992.9 0 72
2018-05-04 10:00:00 11.7 17 Nordeste 45 Nordeste 0 993.5 0.9 73
2018-05-04 09:00:00 10.1 21 Nordeste 34 Nordeste 0 993.1 0.4 79
2018-05-04 08:00:00 8.8 16 Nordeste 36 Nordeste 0 992.9 -0.1 83
2018-05-04 07:00:00 8.5 16 Nordeste 40 Nordeste 0 992.6 -0.7 85
2018-05-04 06:00:00 8.7 20 Nordeste 40 Nordeste 0 992.7 -1 84
2018-05-04 05:00:00 8.8 18 Nordeste 35 Nordeste 0 993 -1.1 84
2018-05-04 04:00:00 9 22 Nordeste 44 Nordeste 0 993.3 -0.8 83
2018-05-04 03:00:00 9.1 21 Nordeste 37 Nordeste 0 993.7 -0.5 81
2018-05-04 02:00:00 9.3 18 Nordeste 41 Nordeste 0 994.1 -0.2 81
2018-05-04 01:00:00 9.5 26 Nordeste 53 Nordeste 0 994.1 0.4 81
2018-05-04 00:00:00 9.5 33 Nordeste 56 Nordeste 0 994.2 0.8 79
2018-05-03 23:00:00 9.8 33 Nordeste 66 Nordeste 0 994.3 1.1 78
2018-05-03 22:00:00 10 35 Nordeste 60 Nordeste 0 993.7 0.6 79
2018-05-03 21:00:00 10.7 42 Nordeste 68 Nordeste 0 993.4 0.2 75
2018-05-03 20:00:00 11.6 42 Nordeste 68 Nordeste 0 993.2 -0.4 68
2018-05-03 19:00:00 12.3 35 Nordeste 55 Nordeste 0 993.1 -0.8 69
2018-05-03 18:00:00 12.8 32 Nordeste 63 Nordeste 0 993.2 -0.9 65
2018-05-03 17:00:00 12.7 36 Nordeste 62 Norte 0 993.6 -1.1 64
2018-05-03 16:00:00 12.9 32 Nordeste 56 Nordeste 0 993.9 -1.1 65
2018-05-03 15:00:00 12.5 33 Norte 51 Norte 0 994.1 -0.9 68
2018-05-03 14:00:00 12.6 25 Nordeste 51 Nordeste 0 994.7 -0.2 66
2018-05-03 13:00:00 11.4 27 Nordeste 48 Nordeste 0 995 0.2 73
2018-05-03 12:00:00 11.4 35 Nordeste 49 Nordeste 0 995 0.4 71
2018-05-03 11:00:00 10.9 32 Nordeste 46 Nordeste 0 994.9 1.3 76
2018-05-03 10:00:00 10.5 22 Nordeste 39 Nordeste 0 994.8 1.6 82
2018-05-03 09:00:00 9.1 23 Nordeste 41 Nordeste 0 994.6 1.2 85
2018-05-03 08:00:00 8.9 37 Nordeste 55 Nordeste 0 993.6 0.2 82
2018-05-03 07:00:00 8.4 37 Nordeste 46 Nordeste 0 993.2 -0.1 85
2018-05-03 06:00:00 8.2 29 Nordeste 40 Nordeste 0 993.4 0 86
2018-05-03 05:00:00 8.2 24 Nordeste 39 Nordeste 0 993.4 -0.2 88
2018-05-03 04:00:00 8.8 26 Nordeste 41 Nordeste 0 993.3 0.1 88
2018-05-03 03:00:00 9.5 28 Nordeste 43 Nordeste 0 993.4 0.5 91
2018-05-03 02:00:00 9.6 24 Nordeste 38 Nordeste 0 993.6 1.1 94
2018-05-03 01:00:00 9.5 30 Nordeste 45 Nordeste 0 993.2 1.8 94
2018-05-03 00:00:00 9 29 Nordeste 45 Nordeste 0 992.9 2 96
2018-05-02 23:00:00 9.8 23 Nordeste 48 Nordeste 0 992.5 1.8 96
2018-05-02 22:00:00 10.3 35 Nordeste 53 Nordeste 0.4 991.4 1.2 96
2018-05-02 21:00:00 11.3 30 Nordeste 41 Nordeste 0.2 990.9 1.1 96
2018-05-02 20:00:00 12.3 13 Noroeste 36 Oeste 0.8 990.7 1.2 96
2018-05-02 19:00:00 12.1 28 Oeste 36 Oeste 0.8 990.2 0.9 95
2018-05-02 18:00:00 12.4 24 Oeste 37 Oeste 2 989.8 0.7 95
2018-05-02 17:00:00 12.4 28 Sudoeste 43 Sudoeste 1.4 989.5 0.9 95
2018-05-02 16:00:00 12.6 33 Sudoeste 42 Sudoeste 0.4 989.3 1.1 95
2018-05-02 15:00:00 12.1 30 Sudoeste 45 Sudoeste 0.8 989.1 1.4 95
2018-05-02 14:00:00 12.2 37 Sudoeste 48 Sudoeste 1.8 988.6 1.9 95
2018-05-02 13:00:00 11.7 39 Sudoeste 50 Sudoeste 1.8 988.2 1.9 95
2018-05-02 12:00:00 11.1 22 Sur 50 Sur 1.4 987.7 2 95
2018-05-02 11:00:00 10.9 26 Sur 50 Sudoeste 1.4 986.7 1.7 95
2018-05-02 10:00:00 10.8 30 Sur 57 Sudoeste 1.6 986.3 1.7 95
2018-05-02 09:00:00 11 29 Sur 57 Sudoeste 3.4 985.7 1.1 95
2018-05-02 08:00:00 10.6 27 Sur 55 Sudoeste 3.2 985 0.2 95
2018-05-02 07:00:00 10.4 35 Sudoeste 60 Sudoeste 1 984.6 -0.6 95
2018-05-02 06:00:00 10.3 40 Sudoeste 60 Sur 0.6 984.6 -0.7 94
2018-05-02 05:00:00 10.2 46 Sudoeste 64 Sudoeste 1.6 984.8 -0.8 94
2018-05-02 04:00:00 10 39 Sudoeste 68 Sur 0.6 985.2 -0.8 94
2018-05-02 03:00:00 9.9 45 Sudoeste 65 Sudoeste 1.4 985.3 -0.8 94
2018-05-02 02:00:00 9.8 46 Sudoeste 61 Sudoeste 1.4 985.6 -1.1 93
2018-05-02 01:00:00 9.6 46 Sudoeste 62 Sudoeste 1 986 -0.6 92
2018-05-02 00:00:00 9.9 47 Sudoeste 66 Sudoeste 1.2 986.1 -1.1 90
2018-05-01 23:00:00 9.4 45 Sudoeste 55 Sudoeste 0.6 986.7 -0.7 87
2018-05-01 22:00:00 10.2 40 Sudoeste 54 Sudoeste 0.2 986.6 -1.3 81
2018-05-01 21:00:00 10.8 41 Sudoeste 53 Sudoeste 0 987.2 -1.3 76
2018-05-01 20:00:00 11.4 38 Sudoeste 50 Sudoeste 0 987.4 -1.8 72
2018-05-01 19:00:00 13.2 34 Sudoeste 45 Sudoeste 0 987.9 -1.8 66
2018-05-01 18:00:00 12.7 31 Sudoeste 41 Sudoeste 0 988.5 -1.7 66
2018-05-01 17:00:00 13.6 28 Sudoeste 39 Sudoeste 0 989.2 -1.3 62
2018-05-01 16:00:00 15.3 24 Sudoeste 33 Sudoeste 0 989.7 -1 59
2018-05-01 15:00:00 13.6 21 Oeste 36 Sudoeste 0 990.2 -0.7 61
2018-05-01 14:00:00 13.7 21 Sudoeste 30 Sudoeste 0 990.5 -0.4 70
2018-05-01 13:00:00 14.3 19 Sudoeste 28 Sudoeste 0 990.7 -0.3 68
2018-05-01 12:00:00 13.2 14 Sudoeste 22 Sudoeste 0 990.9 0 70
2018-05-01 11:00:00 11.6 10 Sur 17 Sudoeste 0 990.9 0.1 67
2018-05-01 10:00:00 11.4 6 Sur 12 Sur 0 991 0.4 66
2018-05-01 09:00:00 10.4 4 Sur 6 Sur 0 990.9 0.3 67
2018-05-01 08:00:00 8.5 4 Oeste 5 Oeste 0 990.8 0 67
2018-05-01 07:00:00 8.2 6 Nordeste 12 Nordeste 0 990.6 -0.4 66
2018-05-01 06:00:00 7.8 11 Nordeste 16 Nordeste 0 990.6 -1 70
2018-05-01 05:00:00 7.7 15 Nordeste 20 Nordeste 0 990.8 -1 71
2018-05-01 04:00:00 7.8 17 Nordeste 27 Este 0 991 -0.8 72
2018-05-01 03:00:00 7.7 16 Nordeste 33 Nordeste 0.2 991.6 -0.1 74
2018-05-01 02:00:00 8.6 17 Nordeste 27 Nordeste 0 991.8 0.5 74
2018-05-01 01:00:00 8.7 18 Nordeste 32 Norte 0 991.8 1.1 73
2018-05-01 00:00:00 9 24 Nordeste 35 Nordeste 0 991.7 1.1 69
2018-04-30 23:00:00 8.7 27 Nordeste 48 Norte 0 991.3 1 71
2018-04-30 22:00:00 9.6 29 Norte 50 Norte 0 990.7 0.6 72
2018-04-30 21:00:00 10.3 27 Norte 47 Norte 0 990.6 0.8 70
2018-04-30 20:00:00 11 28 Norte 52 Norte 0 990.3 0.6 63
2018-04-30 19:00:00 11.2 30 Norte 53 Norte 0 990.1 0.5 60
2018-04-30 18:00:00 11.4 36 Norte 56 Norte 0 989.8 0.4 63
2018-04-30 17:00:00 11.4 35 Norte 55 Norte 0 989.7 0.1 63
2018-04-30 16:00:00 11.4 34 Norte 53 Norte 0 989.6 0 68
2018-04-30 15:00:00 11.5 30 Norte 50 Norte 0.2 989.4 0.2 66
2018-04-30 14:00:00 11.2 27 Norte 45 Nordeste 0 989.6 0.9 74
2018-04-30 13:00:00 11.1 19 Norte 35 Norte 0 989.6 1.6 76
2018-04-30 12:00:00 10.3 14 Norte 32 Nordeste 0 989.2 1.7 76
2018-04-30 11:00:00 9.4 14 Nordeste 26 Nordeste 0 988.7 1.9 84
2018-04-30 10:00:00 8.9 14 Nordeste 18 Nordeste 0 988 2.1 85
2018-04-30 09:00:00 8.9 5 Nordeste 8 Norte 0 987.5 1.8 82
2018-04-30 08:00:00 7.5 6 Nordeste 9 Nordeste 0 986.8 1.5 87
2018-04-30 07:00:00 7.5 9 Sudeste 17 Sudeste 0 985.9 0.9 91
2018-04-30 06:00:00 7.7 13 Sudeste 21 Sudeste 0 985.7 0.7 91
2018-04-30 05:00:00 7.8 10 Este 14 Este 0 985.3 0.1 89
2018-04-30 04:00:00 7.6 6 Sudeste 11 Sudoeste 0 985 0.1 90
2018-04-30 03:00:00 7.6 10 Sudoeste 26 Oeste 0 985 0.4 91
2018-04-30 02:00:00 7.8 20 Sudoeste 34 Sudoeste 0.4 985.2 0.6 92
2018-04-30 01:00:00 7.6 26 Oeste 52 Sudoeste 1 984.9 0.9 91
2018-04-30 00:00:00 7.7 30 Oeste 46 Oeste 0 984.6 1 90
2018-04-29 23:00:00 7.2 30 Oeste 49 Oeste 0.2 984.6 1.6 90
2018-04-29 22:00:00 7.2 31 Sudoeste 54 Oeste 0.4 984 1.3 89
2018-04-29 21:00:00 7.4 31 Oeste 64 Oeste 0.2 983.6 1 86
2018-04-29 20:00:00 7.8 41 Oeste 59 Oeste 0 983 0.6 84
2018-04-29 19:00:00 8.6 31 Noroeste 49 Noroeste 0 982.7 0.4 78
2018-04-29 18:00:00 10.5 24 Noroeste 48 Noroeste 0 982.6 1 77
2018-04-29 17:00:00 10.1 24 Noroeste 59 Noroeste 0 982.4 0.8 81
2018-04-29 16:00:00 9.9 29 Noroeste 53 Noroeste 0 982.3 0.7 77
2018-04-29 15:00:00 8.2 35 Noroeste 57 Noroeste 1 981.6 0.6 88
2018-04-29 14:00:00 9.1 22 Noroeste 54 Noroeste 0 981.6 1.1 82
2018-04-29 13:00:00 9 18 Noroeste 55 Noroeste 0.2 981.6 1.5 80
2018-04-29 12:00:00 6.9 25 Noroeste 53 Noroeste 1.4 981 1.4 87
2018-04-29 11:00:00 8.7 20 Noroeste 57 Noroeste 0.4 980.5 1.5 84
2018-04-29 10:00:00 7.5 19 Noroeste 46 Noroeste 0.2 980.1 1.1 87
2018-04-29 09:00:00 8.2 18 Noroeste 48 Noroeste 0 979.6 0.6 88
2018-04-29 08:00:00 8 18 Noroeste 60 Noroeste 0.2 979 -0.3 90
2018-04-29 07:00:00 7.6 19 Noroeste 35 Noroeste 0 979 -0.6 90
2018-04-29 06:00:00 8.3 14 Oeste 26 Oeste 0 979 -1.1 88
2018-04-29 05:00:00 8 12 Oeste 17 Oeste 0 979.3 -1.4 88
2018-04-29 04:00:00 7.8 11 Oeste 18 Oeste 0 979.6 -1.4 88
2018-04-29 03:00:00 7.6 11 Oeste 15 Oeste 0 980.1 -1.3 88
2018-04-29 02:00:00 8.2 7 Oeste 13 Sudoeste 0 980.7 -1 88
2018-04-29 01:00:00 8.1 11 Sur 14 Sur 0 981 -0.7 89
2018-04-29 00:00:00 8.1 9 Sur 15 Sur 0 981.4 -0.3 90
2018-04-28 23:00:00 8.1 4 Sur 14 Oeste 0.2 981.7 -0.2 90
2018-04-28 22:00:00 8.2 9 Oeste 19 Oeste 1 981.7 -0.6 90
2018-04-28 21:00:00 8.3 8 Oeste 17 Oeste 1.2 981.7 -0.7 88
2018-04-28 20:00:00 9.6 7 Noroeste 17 Oeste 0 981.9 -0.7 81
2018-04-28 19:00:00 10.1 14 Oeste 28 Oeste 0 982.3 -0.8 77
2018-04-28 18:00:00 12.7 20 Oeste 29 Oeste 0 982.4 -0.9 69
2018-04-28 17:00:00 14.8 21 Oeste 33 Sudoeste 0 982.6 -1.2 66
2018-04-28 16:00:00 15.6 23 Sudoeste 32 Sudoeste 0 983.1 -1 65
2018-04-28 15:00:00 16.2 22 Sudoeste 30 Sudoeste 0 983.3 -1.1 60
2018-04-28 14:00:00 15.7 19 Sudoeste 28 Sudoeste 0 983.8 -0.7 63
2018-04-28 13:00:00 15 19 Sudoeste 30 Sudoeste 0 984.1 -0.6 63
2018-04-28 12:00:00 13.8 15 Sur 25 Sudoeste 0 984.4 -0.3 64
2018-04-28 11:00:00 12.8 11 Sudeste 26 Sur 0 984.5 -0.1 66
2018-04-28 10:00:00 12 10 Sudeste 21 Sudeste 0 984.7 -0.3 67
2018-04-28 09:00:00 10 7 Sudeste 19 Sudeste 0 984.7 -0.8 75
2018-04-28 08:00:00 8.1 12 Sudeste 15 Sudeste 0 984.6 -1.5 81
2018-04-28 07:00:00 8.5 8 Sur 15 Sur 0 985 -1.5 81
2018-04-28 06:00:00 8.5 9 Sur 14 Sur 0 985.5 -1.8 80
2018-04-28 05:00:00 8.8 5 Sur 9 Sudoeste 0 986.1 -1.6 77
2018-04-28 04:00:00 9 5 Oeste 10 Oeste 0 986.5 -1.5 77
2018-04-28 03:00:00 9.1 2 Nordeste 14 Norte 0 987.3 -1.3 74
2018-04-28 02:00:00 9.3 7 Noroeste 18 Norte 0 987.7 -1.5 74
2018-04-28 01:00:00 9.6 11 Noroeste 23 Norte 0 988 -1.1 76
2018-04-28 00:00:00 9.7 12 Noroeste 22 Norte 0 988.6 -0.7 74
2018-04-27 23:00:00 9.9 9 Noroeste 18 Norte 0 989.2 -0.3 73
2018-04-27 22:00:00 10 12 Norte 20 Norte 0 989.1 -0.7 73
2018-04-27 21:00:00 10.4 11 Norte 23 Norte 0 989.3 -0.5 70
2018-04-27 20:00:00 11 10 Noroeste 25 Norte 0 989.5 -0.7 68
2018-04-27 19:00:00 12.7 12 Norte 24 Norte 0 989.8 -0.8 64
2018-04-27 18:00:00 12.6 14 Norte 28 Norte 0 989.8 -0.9 67
2018-04-27 17:00:00 12.7 12 Noroeste 27 Noroeste 0 990.2 -0.7 68
2018-04-27 16:00:00 12.2 12 Noroeste 20 Noroeste 0 990.6 -0.4 70
2018-04-27 15:00:00 11.5 8 Norte 28 Noroeste 0 990.7 -0.4 73
2018-04-27 14:00:00 13.4 15 Noroeste 22 Noroeste 0 990.9 0.4 63
2018-04-27 13:00:00 12.3 11 Norte 26 Noroeste 0 991 0.5 66
2018-04-27 12:00:00 11.3 15 Noroeste 37 Noroeste 0 991.1 1.2 68
2018-04-27 11:00:00 10.9 21 Noroeste 44 Norte 0 990.5 1.1 67
2018-04-27 10:00:00 10 13 Noroeste 40 Norte 0 990.5 1.4 80
2018-04-27 09:00:00 10.1 16 Noroeste 41 Norte 0 989.9 0.9 75
2018-04-27 08:00:00 9.5 18 Norte 39 Norte 0 989.4 0.6 84
2018-04-27 07:00:00 10 16 Noroeste 44 Norte 0 989.1 0.3 79
2018-04-27 06:00:00 9.9 17 Noroeste 38 Norte 0 989 -0.3 82
2018-04-27 05:00:00 10.2 18 Noroeste 43 Norte 0 988.8 -1 85
2018-04-27 04:00:00 10.3 17 Noroeste 44 Norte 0 988.8 -1.2 92
2018-04-27 03:00:00 11.4 33 Oeste 49 Oeste 0 989.3 -1.1 93
2018-04-27 02:00:00 10.6 20 Sudoeste 27 Sudoeste 0 989.8 -0.7 89
2018-04-27 01:00:00 9.6 13 Sudoeste 18 Sudoeste 0 990 0.5 89
2018-04-27 00:00:00 9.9 5 Oeste 28 Noroeste 0 990.4 0.9 88
2018-04-26 23:00:00 10.4 17 Noroeste 31 Norte 0 990.5 1 88
2018-04-26 22:00:00 10.6 24 Norte 47 Norte 0 989.5 -0.2 87
2018-04-26 21:00:00 11.5 32 Norte 44 Norte 0 989.5 -0.6 84
2018-04-26 20:00:00 12.5 26 Norte 64 Norte 0 989.5 -0.9 79
2018-04-26 19:00:00 11.9 40 Norte 62 Norte 0 989.7 -1.3 80
2018-04-26 18:00:00 12.6 34 Norte 63 Norte 0 990.1 -1.5 78
2018-04-26 17:00:00 12.7 35 Norte 59 Norte 0 990.4 -1.9 77
2018-04-26 16:00:00 12.4 41 Norte 62 Norte 0 991 -2.1 76
2018-04-26 15:00:00 12.7 35 Norte 53 Norte 0 991.6 -2.4 75
2018-04-26 14:00:00 13.2 31 Norte 46 Norte 0 992.3 -2 72
2018-04-26 13:00:00 13.6 26 Nordeste 48 Norte 0 993.1 -1.7 67
2018-04-26 12:00:00 13.5 23 Nordeste 45 Este 0 994 -0.9 68
2018-04-26 11:00:00 12.3 28 Nordeste 55 Nordeste 0 994.3 -0.5 71
2018-04-26 10:00:00 11.1 32 Nordeste 49 Nordeste 0 994.8 0.2 76
2018-04-26 09:00:00 10.2 31 Nordeste 50 Nordeste 0 994.9 -0.5 82
2018-04-26 08:00:00 9.4 28 Nordeste 45 Nordeste 0 994.8 -1 86
2018-04-26 07:00:00 9.5 32 Nordeste 49 Nordeste 0 994.6 -1.7 86
2018-04-26 06:00:00 9.2 27 Nordeste 38 Nordeste 0 995.4 -1.2 87
2018-04-26 05:00:00 9.3 27 Nordeste 43 Nordeste 0 995.8 -1.2 84
2018-04-26 04:00:00 9.5 30 Nordeste 44 Nordeste 0 996.3 -0.6 85
2018-04-26 03:00:00 9.7 30 Nordeste 45 Nordeste 0 996.6 -0.7 85
2018-04-26 02:00:00 9.8 28 Nordeste 46 Norte 0 997 -0.2 85
2018-04-26 01:00:00 9.9 28 Nordeste 48 Nordeste 0 996.9 -0.1 85
2018-04-26 00:00:00 10.1 32 Nordeste 50 Nordeste 0 997.3 1 85
2018-04-25 23:00:00 10.5 30 Nordeste 50 Nordeste 0 997.2 1.2 84
2018-04-25 22:00:00 10.7 34 Nordeste 60 Nordeste 0 997 0.9 83
2018-04-25 21:00:00 11.5 35 Norte 60 Norte 0 996.3 0.3 79
2018-04-25 20:00:00 12.2 36 Norte 61 Nordeste 0 996 -0.2 73
2018-04-25 19:00:00 13 33 Norte 57 Nordeste 0 996.1 -0.6 69
2018-04-25 18:00:00 13.4 38 Nordeste 59 Nordeste 0 996 -0.6 64
2018-04-25 17:00:00 13.6 37 Nordeste 61 Nordeste 0 996.2 -0.2 66
2018-04-25 16:00:00 14.1 36 Nordeste 60 Nordeste 0 996.7 0.4 61
2018-04-25 15:00:00 13.5 34 Nordeste 66 Nordeste 0 996.6 -0.1 68
2018-04-25 14:00:00 12.8 39 Norte 66 Norte 0 996.4 0.8 72
2018-04-25 13:00:00 12.2 41 Nordeste 64 Nordeste 0 996.3 0.9 78
2018-04-25 12:00:00 10.8 33 Nordeste 60 Nordeste 0 996.7 2 93
2018-04-25 11:00:00 10.6 36 Nordeste 56 Nordeste 0 995.6 1.5 95
2018-04-25 10:00:00 10.8 32 Nordeste 61 Norte 0 995.4 1.9 95
2018-04-25 09:00:00 11.3 26 Nordeste 40 Nordeste 0 994.7 1.5 94
2018-04-25 08:00:00 10.8 29 Nordeste 41 Nordeste 0 994.1 1.1 93
2018-04-25 07:00:00 11 26 Nordeste 40 Nordeste 0 993.5 0.6 92
2018-04-25 06:00:00 11.2 27 Nordeste 44 Nordeste 0 993.2 -0.2 91
2018-04-25 05:00:00 11 26 Nordeste 42 Norte 0 993 -0.2 92
2018-04-25 04:00:00 11 30 Nordeste 49 Nordeste 0 992.9 -0.5 90
2018-04-25 03:00:00 10.8 27 Nordeste 42 Nordeste 0 993.4 -0.1 90
2018-04-25 02:00:00 10.4 30 Nordeste 42 Nordeste 0 993.2 0.4 90
2018-04-25 01:00:00 10.4 30 Nordeste 46 Nordeste 0 993.4 1.6 90
2018-04-25 00:00:00 11 23 Nordeste 53 Nordeste 0 993.5 1.9 91
2018-04-24 23:00:00 11.1 35 Norte 55 Norte 0 992.8 1.8 92
2018-04-24 22:00:00 11.3 38 Norte 58 Nordeste 0 991.8 1 91
2018-04-24 21:00:00 12.3 27 Nordeste 57 Norte 0 991.6 0.8 85
2018-04-24 20:00:00 13.4 36 Nordeste 55 Norte 0 991 0.3 79
2018-04-24 19:00:00 13.1 38 Norte 60 Nordeste 0 990.8 0.1 84
2018-04-24 18:00:00 13.5 40 Norte 60 Norte 0 990.8 0.2 83
2018-04-24 17:00:00 14.6 39 Nordeste 70 Nordeste 0 990.7 -0.1 78
2018-04-24 16:00:00 13.5 41 Nordeste 72 Norte 0 990.7 -0.1 85
2018-04-24 15:00:00 12.7 47 Norte 74 Norte 0 990.6 -0.3 89
2018-04-24 14:00:00 13 45 Norte 69 Nordeste 0 990.8 0.3 89
2018-04-24 13:00:00 13.9 45 Nordeste 59 Nordeste 0 990.8 0.3 85
2018-04-24 12:00:00 13.7 33 Nordeste 53 Nordeste 0 990.9 1.1 85
2018-04-24 11:00:00 13 41 Nordeste 60 Nordeste 0 990.5 1.2 87
2018-04-24 10:00:00 11.8 41 Nordeste 55 Nordeste 0 990.5 1.7 92
2018-04-24 09:00:00 11.1 42 Nordeste 62 Nordeste 0 989.8 1 93
2018-04-24 08:00:00 10.8 39 Nordeste 54 Nordeste 0 989.3 0.4 94
2018-04-24 07:00:00 10.9 36 Nordeste 58 Nordeste 0 988.8 -0.5 93
2018-04-24 06:00:00 11 34 Nordeste 54 Nordeste 0 988.8 -0.8 93
2018-04-24 05:00:00 11.3 41 Nordeste 60 Nordeste 0 988.9 -0.9 93
2018-04-24 04:00:00 11.3 41 Nordeste 63 Nordeste 0 989.3 -1.3 94
2018-04-24 03:00:00 11.4 43 Nordeste 66 Norte 0 989.6 -1.3 94
2018-04-24 02:00:00 11.4 44 Nordeste 69 Nordeste 0 989.8 -1.4 94
2018-04-24 01:00:00 11.3 39 Nordeste 55 Nordeste 0 990.6 0.4 94
2018-04-24 00:00:00 11.3 40 Nordeste 58 Nordeste 0 990.9 1.2 93
2018-04-23 23:00:00 11.3 33 Nordeste 59 Nordeste 0 991.2 1.8 92
2018-04-23 22:00:00 11.3 40 Este 58 Este 0 990.2 0.5 91
2018-04-23 21:00:00 11.9 37 Nordeste 69 Nordeste 0 989.7 -0.3 88
2018-04-23 20:00:00 13 40 Nordeste 66 Nordeste 0 989.4 -0.7 84
2018-04-23 19:00:00 15.2 33 Norte 50 Norte 0 989.7 -0.6 76
2018-04-23 18:00:00 16.5 24 Nordeste 50 Nordeste 0 990 -0.3 71
2018-04-23 17:00:00 16.2 29 Nordeste 46 Nordeste 0 990.1 -0.6 74
2018-04-23 16:00:00 16.1 29 Nordeste 54 Nordeste 0 990.3 -0.9 74
2018-04-23 15:00:00 17 32 Nordeste 46 Nordeste 0 990.3 -1.2 71
2018-04-23 14:00:00 17.5 29 Nordeste 50 Nordeste 0 990.7 -0.5 71
2018-04-23 13:00:00 16.4 30 Nordeste 46 Nordeste 0 991.2 0.3 72
2018-04-23 12:00:00 15.4 29 Nordeste 50 Nordeste 0 991.5 0.8 72
2018-04-23 11:00:00 13.4 36 Nordeste 53 Nordeste 0 991.2 0.7 79
2018-04-23 10:00:00 12 37 Nordeste 52 Este 0 990.9 0.6 85
2018-04-23 09:00:00 11.1 37 Nordeste 60 Nordeste 0 990.7 0.8 87
2018-04-23 08:00:00 10.3 39 Nordeste 54 Nordeste 0 990.5 0.2 88
2018-04-23 07:00:00 10.4 27 Nordeste 54 Nordeste 0 990.3 0.2 89
2018-04-23 06:00:00 10.7 37 Nordeste 64 Nordeste 0 989.9 -0.2 89
2018-04-23 05:00:00 10.7 32 Nordeste 58 Nordeste 0 990.3 0 88
2018-04-23 04:00:00 10.7 43 Nordeste 68 Nordeste 0 990.1 -0.2 88
2018-04-23 03:00:00 10.7 46 Nordeste 65 Nordeste 0 990.1 -0.4 87
2018-04-23 02:00:00 10.7 42 Nordeste 63 Nordeste 0 990.3 0.1 87
2018-04-23 01:00:00 10.5 39 Nordeste 57 Nordeste 0 990.3 0.9 88
2018-04-23 00:00:00 10.6 39 Nordeste 58 Nordeste 0 990.5 1.9 87
2018-04-22 23:00:00 10.8 39 Nordeste 59 Nordeste 0 990.2 1.9 85
2018-04-22 22:00:00 10.7 36 Nordeste 59 Nordeste 0 989.4 1.4 85
2018-04-22 21:00:00 11.5 37 Nordeste 61 Nordeste 0 988.6 0.7 82
2018-04-22 20:00:00 13 36 Nordeste 55 Nordeste 0 988.3 -0.2 76
2018-04-22 19:00:00 12.9 37 Nordeste 60 Nordeste 0 988 -0.9 85
2018-04-22 18:00:00 13.3 31 Nordeste 55 Norte 0 987.9 -0.9 84
2018-04-22 17:00:00 12.6 33 Norte 50 Norte 0 988.5 -0.5 87
2018-04-22 16:00:00 12.5 26 Norte 40 Norte 0 988.9 -0.3 89
2018-04-22 15:00:00 12.8 26 Norte 36 Norte 0 988.8 -0.5 90
2018-04-22 14:00:00 13 22 Norte 34 Norte 0 989 -0.3 91
2018-04-22 13:00:00 12.5 24 Norte 41 Norte 0 989.2 0.2 92
2018-04-22 12:00:00 12 19 Norte 30 Norte 0 989.3 0.2 93
2018-04-22 11:00:00 12.1 12 Norte 25 Norte 0 989.3 0.7 94
2018-04-22 10:00:00 11.7 15 Norte 23 Norte 0 989 0.7 93
2018-04-22 09:00:00 11.9 12 Norte 18 Norte 0 989.1 0.6 93
2018-04-22 08:00:00 12.2 8 Norte 15 Noroeste 0 988.6 -0.5 88
2018-04-22 07:00:00 12.8 9 Sur 12 Sudeste 0 988.3 -1.2 89
2018-04-22 06:00:00 12.3 3 Sur 17 Nordeste 0 988.5 -1.3 92
2018-04-22 05:00:00 12.3 5 Oeste 13 Norte 0 989.1 -0.3 90
2018-04-22 04:00:00 13.5 8 Sudoeste 11 Sudoeste 0 989.5 -0.1 85
2018-04-22 03:00:00 13.7 6 Sudeste 17 Norte 0 989.8 0 85
2018-04-22 02:00:00 12.6 9 Norte 21 Norte 0 989.4 0 91
2018-04-22 01:00:00 12 12 Norte 18 Norte 0 989.6 1 92
2018-04-22 00:00:00 13.1 11 Noroeste 17 Noroeste 0 989.8 1.4 88